createdAt,value
2023-01-01T00:00:38.850Z,20.93
2023-01-01T00:03:05.571Z,20.37
2023-01-01T00:05:32.307Z,19.60
2023-01-01T00:08:04.599Z,20.23
2023-01-01T00:10:32.408Z,19.40
2023-01-01T00:12:59.994Z,19.90
2023-01-01T00:15:27.612Z,19.80
2023-01-01T00:17:54.903Z,21.20
2023-01-01T00:20:22.073Z,20.00
2023-01-01T00:22:56.698Z,19.30
2023-01-01T00:25:24.908Z,19.50
2023-01-01T00:27:52.060Z,19.10
2023-01-01T00:30:19.224Z,19.87
2023-01-01T00:32:55.716Z,19.77
2023-01-01T00:35:26.889Z,19.17
2023-01-01T00:37:55.253Z,19.80
2023-01-01T00:40:22.194Z,19.87
2023-01-01T00:42:48.893Z,18.33
2023-01-01T00:45:20.872Z,19.80
2023-01-01T00:47:49.368Z,18.57
2023-01-01T00:50:16.125Z,18.80
2023-01-01T00:52:43.222Z,18.10
2023-01-01T00:55:10.635Z,20.60
2023-01-01T00:57:37.333Z,19.07
2023-01-01T01:00:05.293Z,19.10
2023-01-01T01:02:32.166Z,20.50
2023-01-01T01:04:59.211Z,20.20
2023-01-01T01:07:25.877Z,18.53
2023-01-01T01:09:52.555Z,20.03
2023-01-01T01:12:19.293Z,18.87
2023-01-01T01:14:46.794Z,20.53
2023-01-01T01:17:13.537Z,19.87
2023-01-01T01:19:40.249Z,19.97
2023-01-01T01:22:06.991Z,21.20
2023-01-01T01:24:33.689Z,18.73
2023-01-01T01:27:00.356Z,19.60
2023-01-01T01:29:27.043Z,19.50
2023-01-01T01:31:53.760Z,20.20
2023-01-01T01:34:27.174Z,19.60
2023-01-01T01:36:54.455Z,19.43
2023-01-01T01:39:21.216Z,19.70
2023-01-01T01:41:48.029Z,19.17
2023-01-01T01:44:49.058Z,20.93
2023-01-01T01:47:38.265Z,19.33
2023-01-01T01:50:05.097Z,19.07
2023-01-01T01:52:34.470Z,18.83
2023-01-01T01:55:04.244Z,18.50
2023-01-01T01:57:32.207Z,18.80
2023-01-01T02:00:03.666Z,19.23
2023-01-01T02:02:52.899Z,18.50
2023-01-01T02:05:21.728Z,18.87
2023-01-01T02:07:49.696Z,19.50
2023-01-01T02:10:16.398Z,18.40
2023-01-01T02:12:43.234Z,19.10
2023-01-01T02:15:10.863Z,18.63
2023-01-01T02:17:52.616Z,22.57
2023-01-01T02:20:45.292Z,24.73
2023-01-01T02:23:29.511Z,26.20
2023-01-01T02:26:20.843Z,25.20
2023-01-01T02:28:50.571Z,25.57
2023-01-01T02:31:26.722Z,25.37
2023-01-01T02:33:58.708Z,25.23
2023-01-01T02:36:26.652Z,26.70
2023-01-01T02:38:56.890Z,24.70
2023-01-01T02:41:28.089Z,22.40
2023-01-01T02:48:48.689Z,23.90
2023-01-01T02:51:36.757Z,24.13
2023-01-01T02:54:18.083Z,24.57
2023-01-01T02:57:08.336Z,23.17
2023-01-01T03:00:10.135Z,22.53
2023-01-01T03:02:55.403Z,21.33
2023-01-01T03:05:33.771Z,22.97
2023-01-01T03:08:23.083Z,21.97
2023-01-01T03:11:02.955Z,21.70
2023-01-01T03:13:48.967Z,20.90
2023-01-01T03:16:21.957Z,20.53
2023-01-01T03:19:18.054Z,20.87
2023-01-01T03:22:07.838Z,19.83
2023-01-01T03:24:45.713Z,20.10
2023-01-01T03:27:34.897Z,20.97
2023-01-01T03:30:08.260Z,20.60
2023-01-01T03:32:59.558Z,20.53
2023-01-01T03:35:47.078Z,20.13
2023-01-01T03:38:40.387Z,19.70
2023-01-01T03:41:26.955Z,20.60
2023-01-01T03:44:00.636Z,18.13
2023-01-01T03:46:32.167Z,20.00
2023-01-01T03:49:04.062Z,19.63
2023-01-01T03:51:57.326Z,19.43
2023-01-01T03:55:05.783Z,19.47
2023-01-01T03:57:55.477Z,18.47
2023-01-01T04:00:28.014Z,19.20
2023-01-01T04:02:59.957Z,18.77
2023-01-01T04:05:28.433Z,18.27
2023-01-01T04:07:55.725Z,18.90
2023-01-01T04:10:24.856Z,18.87
2023-01-01T04:12:57.050Z,18.33
2023-01-01T04:15:26.703Z,19.77
2023-01-01T04:17:54.045Z,18.40
2023-01-01T04:20:21.383Z,18.70
2023-01-01T04:22:48.106Z,19.00
2023-01-01T04:25:15.077Z,18.87
2023-01-01T04:27:41.827Z,19.20
2023-01-01T04:30:10.903Z,19.23
2023-01-01T04:32:38.368Z,18.03
2023-01-01T04:35:06.495Z,18.57
2023-01-01T04:37:36.198Z,16.77
2023-01-01T04:40:03.941Z,17.20
2023-01-01T04:42:30.772Z,17.30
2023-01-01T04:44:57.456Z,18.33
2023-01-01T04:47:24.246Z,17.30
2023-01-01T04:49:50.906Z,18.10
2023-01-01T04:52:17.618Z,16.77
2023-01-01T04:54:44.353Z,17.13
2023-01-01T04:57:11.187Z,17.63
2023-01-01T04:59:37.849Z,18.87
2023-01-01T05:02:04.607Z,16.67
2023-01-01T05:04:31.364Z,17.93
2023-01-01T05:06:58.102Z,18.57
2023-01-01T05:09:24.852Z,17.73
2023-01-01T05:11:51.534Z,16.63
2023-01-01T05:14:18.188Z,17.63
2023-01-01T05:16:44.916Z,17.07
2023-01-01T05:19:11.729Z,18.50
2023-01-01T05:21:40.514Z,16.93
2023-01-01T05:24:09.697Z,18.07
2023-01-01T05:26:40.266Z,16.33
2023-01-01T05:29:13.780Z,15.87
2023-01-01T05:31:43.714Z,16.47
2023-01-01T05:34:10.495Z,16.00
2023-01-01T05:36:38.965Z,16.83
2023-01-01T05:39:07.639Z,16.80
2023-01-01T05:41:37.358Z,15.93
2023-01-01T05:44:07.213Z,15.60
2023-01-01T05:46:34.119Z,15.57
2023-01-01T05:49:00.854Z,16.60
2023-01-01T05:51:29.439Z,15.40
2023-01-01T05:53:56.901Z,15.80
2023-01-01T05:56:24.194Z,16.27
2023-01-01T05:58:50.892Z,16.07
2023-01-01T06:01:26.177Z,16.17
2023-01-01T06:03:54.643Z,15.67
2023-01-01T06:06:24.317Z,16.80
2023-01-01T06:09:02.589Z,14.97
2023-01-01T06:11:30.206Z,14.60
2023-01-01T06:13:59.187Z,15.97
2023-01-01T06:16:27.490Z,15.07
2023-01-01T06:18:54.456Z,16.07
2023-01-01T06:21:23.907Z,15.07
2023-01-01T06:23:51.374Z,15.57
2023-01-01T06:26:21.627Z,14.87
2023-01-01T06:28:48.767Z,16.13
2023-01-01T06:31:19.216Z,14.10
2023-01-01T06:33:46.632Z,14.43
2023-01-01T06:36:15.283Z,14.73
2023-01-01T06:38:45.614Z,14.27
2023-01-01T06:41:19.019Z,15.33
2023-01-01T06:43:46.700Z,13.10
2023-01-01T06:46:28.078Z,14.13
2023-01-01T06:49:04.692Z,14.27
2023-01-01T06:51:34.018Z,14.73
2023-01-01T06:54:02.923Z,14.83
2023-01-01T06:56:30.186Z,14.30
2023-01-01T06:58:57.018Z,13.73
2023-01-01T07:01:26.503Z,13.67
2023-01-01T07:03:59.076Z,13.63
2023-01-01T07:06:27.364Z,13.17
2023-01-01T07:08:54.101Z,14.60
2023-01-01T07:11:21.616Z,13.23
2023-01-01T07:13:48.589Z,13.10
2023-01-01T07:16:15.417Z,14.10
2023-01-01T07:18:42.709Z,13.57
2023-01-01T07:21:29.447Z,14.10
2023-01-01T07:23:58.294Z,13.23
2023-01-01T07:26:26.637Z,13.00
2023-01-01T07:28:53.729Z,12.40
2023-01-01T07:31:20.723Z,12.30
2023-01-01T07:33:47.501Z,12.57
2023-01-01T07:36:14.295Z,13.03
2023-01-01T07:38:41.182Z,13.70
2023-01-01T07:41:07.945Z,12.97
2023-01-01T07:43:34.833Z,13.30
2023-01-01T07:46:01.983Z,13.57
2023-01-01T07:48:29.869Z,13.67
2023-01-01T07:50:59.134Z,12.33
2023-01-01T07:53:25.849Z,13.40
2023-01-01T07:55:52.647Z,13.50
2023-01-01T07:58:19.402Z,12.83
2023-01-01T08:00:47.775Z,13.20
2023-01-01T08:03:15.710Z,11.60
2023-01-01T08:05:42.804Z,12.90
2023-01-01T08:08:10.788Z,12.93
2023-01-01T08:10:38.117Z,12.90
2023-01-01T08:13:07.335Z,11.77
2023-01-01T08:15:34.939Z,11.63
2023-01-01T08:18:04.594Z,11.97
2023-01-01T08:20:32.818Z,12.10
2023-01-01T08:23:06.358Z,12.03
2023-01-01T08:25:34.456Z,11.40
2023-01-01T08:28:01.133Z,12.77
2023-01-01T08:31:33.194Z,11.23
2023-01-01T08:33:59.948Z,11.87
2023-01-01T08:36:26.782Z,12.50
2023-01-01T08:38:53.601Z,11.33
2023-01-01T08:41:20.307Z,12.70
2023-01-01T08:43:47.037Z,11.03
2023-01-01T08:46:13.775Z,11.90
2023-01-01T08:48:40.584Z,11.30
2023-01-01T08:51:07.291Z,10.50
2023-01-01T08:53:34.045Z,11.53
2023-01-01T08:56:11.915Z,10.60
2023-01-01T08:58:40.484Z,10.90
2023-01-01T09:01:08.003Z,9.97
2023-01-01T09:03:35.162Z,10.00
2023-01-01T09:06:02.033Z,10.93
2023-01-01T09:08:28.796Z,10.90
2023-01-01T09:10:59.856Z,11.30
2023-01-01T09:13:26.876Z,11.33
2023-01-01T09:15:53.659Z,11.37
2023-01-01T09:18:20.521Z,10.27
2023-01-01T09:20:47.246Z,11.67
2023-01-01T09:23:14.698Z,10.20
2023-01-01T09:25:41.490Z,10.57
2023-01-01T09:28:11.630Z,10.63
2023-01-01T09:30:38.416Z,10.57
2023-01-01T09:33:05.304Z,10.20
2023-01-01T09:35:32.251Z,10.80
2023-01-01T09:37:58.970Z,11.10
2023-01-01T09:41:13.298Z,10.60
2023-01-01T09:44:09.911Z,10.00
2023-01-01T09:46:37.046Z,10.77
2023-01-01T09:49:12.998Z,10.00
2023-01-01T09:51:49.881Z,10.53
2023-01-01T09:54:33.728Z,10.97
2023-01-01T09:57:01.947Z,10.00
2023-01-01T09:59:28.724Z,10.83
2023-01-01T10:02:32.588Z,10.40
2023-01-01T10:05:04.949Z,11.30
2023-01-01T10:08:10.119Z,10.90
2023-01-01T10:11:25.244Z,10.20
2023-01-01T10:13:54.528Z,11.70
2023-01-01T10:16:42.687Z,11.37
2023-01-01T10:19:41.549Z,11.13
2023-01-01T10:22:32.996Z,12.50
2023-01-01T10:25:06.841Z,11.10
2023-01-01T10:28:07.029Z,12.17
2023-01-01T10:33:14.810Z,11.83
2023-01-01T10:35:47.708Z,13.43
2023-01-01T10:38:35.711Z,21.77
2023-01-01T10:41:19.067Z,27.70
2023-01-01T10:43:47.290Z,26.20
2023-01-01T10:46:17.384Z,29.63
2023-01-01T10:49:12.102Z,45.67
2023-01-01T10:51:45.909Z,88.37
2023-01-01T10:54:33.972Z,108.40
2023-01-01T10:57:26.551Z,112.60
2023-01-01T10:59:54.608Z,115.30
2023-01-01T11:02:22.959Z,122.33
2023-01-01T11:04:51.984Z,131.70
2023-01-01T11:07:33.512Z,134.53
2023-01-01T11:10:04.862Z,126.53
2023-01-01T11:15:40.954Z,120.27
2023-01-01T11:18:38.393Z,117.77
2023-01-01T11:21:07.178Z,108.03
2023-01-01T11:23:38.907Z,106.17
2023-01-01T11:26:17.754Z,103.47
2023-01-01T11:29:01.345Z,97.80
2023-01-01T11:31:38.659Z,101.73
2023-01-01T11:34:16.064Z,99.20
2023-01-01T11:36:42.783Z,98.50
2023-01-01T11:39:28.842Z,97.73
2023-01-01T11:41:57.656Z,94.80
2023-01-01T11:44:37.806Z,93.20
2023-01-01T11:47:06.554Z,92.53
2023-01-01T11:49:33.931Z,89.20
2023-01-01T11:52:00.891Z,91.47
2023-01-01T11:54:37.427Z,87.37
2023-01-01T11:57:14.934Z,87.60
2023-01-01T11:59:49.405Z,84.83
2023-01-01T12:02:29.969Z,78.10
2023-01-01T12:05:23.807Z,77.70
2023-01-01T12:07:51.730Z,74.47
2023-01-01T12:10:22.022Z,72.90
2023-01-01T12:13:25.909Z,74.13
2023-01-01T12:16:07.547Z,70.80
2023-01-01T12:19:16.356Z,70.27
2023-01-01T12:21:52.411Z,69.23
2023-01-01T12:24:20.159Z,65.10
2023-01-01T12:27:16.279Z,67.00
2023-01-01T12:29:51.349Z,63.47
2023-01-01T12:32:25.508Z,60.13
2023-01-01T12:35:10.162Z,59.93
2023-01-01T12:37:48.561Z,56.53
2023-01-01T12:40:42.372Z,55.13
2023-01-01T12:43:21.865Z,53.27
2023-01-01T12:46:31.456Z,51.27
2023-01-01T12:49:09.922Z,48.93
2023-01-01T12:51:39.408Z,45.43
2023-01-01T12:54:27.172Z,47.03
2023-01-01T12:56:56.622Z,48.50
2023-01-01T12:59:36.178Z,48.07
2023-01-01T13:02:32.890Z,46.57
2023-01-01T13:05:17.678Z,43.67
2023-01-01T13:07:49.021Z,41.80
2023-01-01T13:10:35.315Z,40.07
2023-01-01T13:13:03.263Z,41.73
2023-01-01T13:15:38.709Z,42.70
2023-01-01T13:18:17.204Z,41.00
2023-01-01T13:20:53.511Z,37.67
2023-01-01T13:23:32.755Z,40.60
2023-01-01T13:26:17.685Z,35.93
2023-01-01T13:28:59.228Z,36.27
2023-01-01T13:31:38.487Z,35.70
2023-01-01T13:34:30.083Z,34.27
2023-01-01T13:37:14.733Z,36.30
2023-01-01T13:39:51.928Z,31.47
2023-01-01T13:42:40.365Z,32.33
2023-01-01T13:46:01.149Z,32.10
2023-01-01T13:48:39.063Z,32.37
2023-01-01T13:51:40.046Z,30.23
2023-01-01T13:54:26.601Z,30.17
2023-01-01T13:57:08.671Z,28.43
2023-01-01T13:59:52.619Z,28.43
2023-01-01T14:02:59.187Z,28.80
2023-01-01T14:05:39.854Z,26.83
2023-01-01T14:08:13.025Z,26.40
2023-01-01T14:10:39.974Z,25.50
2023-01-01T14:13:06.633Z,26.67
2023-01-01T14:15:33.248Z,24.13
2023-01-01T14:18:12.446Z,26.07
2023-01-01T14:20:45.584Z,23.20
2023-01-01T14:23:20.746Z,22.10
2023-01-01T14:25:47.899Z,23.33
2023-01-01T14:28:29.811Z,23.10
2023-01-01T14:30:59.123Z,22.60
2023-01-01T14:33:29.257Z,23.83
2023-01-01T14:35:58.588Z,21.77
2023-01-01T14:38:31.314Z,21.10
2023-01-01T14:41:20.149Z,20.90
2023-01-01T14:43:49.483Z,21.37
2023-01-01T14:46:19.683Z,19.90
2023-01-01T14:48:49.478Z,20.67
2023-01-01T14:51:20.569Z,20.53
2023-01-01T14:53:48.930Z,20.50
2023-01-01T14:56:30.524Z,19.90
2023-01-01T14:59:20.812Z,19.50
2023-01-01T15:01:58.116Z,19.13
2023-01-01T15:04:28.235Z,18.63
2023-01-01T15:06:56.502Z,17.93
2023-01-01T15:09:24.006Z,17.20
2023-01-01T15:11:58.550Z,17.60
2023-01-01T15:14:36.040Z,17.50
2023-01-01T15:17:11.990Z,18.70
2023-01-01T15:19:41.404Z,19.53
2023-01-01T15:22:24.800Z,19.83
2023-01-01T15:24:51.712Z,21.03
2023-01-01T15:27:25.492Z,19.93
2023-01-01T15:29:52.667Z,20.83
2023-01-01T15:32:38.055Z,18.60
2023-01-01T15:35:07.101Z,19.97
2023-01-01T15:37:41.667Z,18.77
2023-01-01T15:40:14.271Z,19.00
2023-01-01T15:43:08.216Z,19.30
2023-01-01T15:45:42.270Z,16.17
2023-01-01T15:48:12.073Z,17.00
2023-01-01T15:50:58.664Z,17.23
2023-01-01T15:53:28.008Z,16.93
2023-01-01T15:55:56.506Z,15.70
2023-01-01T15:58:34.913Z,16.77
2023-01-01T16:01:10.131Z,17.20
2023-01-01T16:03:39.726Z,17.33
2023-01-01T16:06:07.384Z,16.53
2023-01-01T16:08:34.101Z,17.23
2023-01-01T16:11:00.876Z,14.73
2023-01-01T16:13:27.589Z,14.73
2023-01-01T16:16:00.122Z,13.50
2023-01-01T16:18:38.018Z,15.23
2023-01-01T16:21:05.806Z,13.20
2023-01-01T16:23:32.675Z,14.30
2023-01-01T16:25:59.346Z,13.13
2023-01-01T16:28:26.062Z,13.70
2023-01-01T16:30:52.869Z,12.57
2023-01-01T16:33:22.554Z,13.60
2023-01-01T16:35:49.232Z,13.50
2023-01-01T16:38:15.895Z,12.87
2023-01-01T16:40:42.680Z,12.23
2023-01-01T16:43:16.897Z,11.70
2023-01-01T16:45:44.449Z,12.53
2023-01-01T16:48:11.239Z,12.30
2023-01-01T16:50:37.934Z,12.30
2023-01-01T16:53:04.606Z,12.70
2023-01-01T16:55:31.302Z,12.73
2023-01-01T16:58:21.079Z,12.33
2023-01-01T17:00:44.989Z,11.60
2023-01-01T17:03:11.839Z,12.60
2023-01-01T17:05:44.113Z,10.83
2023-01-01T17:08:11.628Z,11.90
2023-01-01T17:10:38.323Z,11.60
2023-01-01T17:13:05.030Z,11.00
2023-01-01T17:15:32.388Z,10.80
2023-01-01T17:17:59.774Z,11.50
2023-01-01T17:20:28.060Z,12.03
2023-01-01T17:22:54.826Z,10.73
2023-01-01T17:25:22.113Z,10.53
2023-01-01T17:27:48.848Z,10.83
2023-01-01T17:30:15.702Z,10.60
2023-01-01T17:32:42.459Z,10.33
2023-01-01T17:35:09.565Z,9.60
2023-01-01T17:37:36.324Z,9.80
2023-01-01T17:40:03.198Z,10.40
2023-01-01T17:42:30.179Z,10.50
2023-01-01T17:44:56.916Z,11.00
2023-01-01T17:47:26.706Z,9.43
2023-01-01T17:49:57.623Z,10.00
2023-01-01T17:52:24.367Z,10.40
2023-01-01T17:54:51.826Z,10.20
2023-01-01T17:57:19.224Z,10.50
2023-01-01T17:59:45.998Z,9.53
2023-01-01T18:02:14.656Z,9.30
2023-01-01T18:04:41.768Z,9.20
2023-01-01T18:07:08.468Z,9.37
2023-01-01T18:09:38.006Z,8.87
2023-01-01T18:12:05.773Z,9.17
2023-01-01T18:14:32.580Z,8.73
2023-01-01T18:16:59.262Z,10.50
2023-01-01T18:19:27.654Z,9.70
2023-01-01T18:21:54.657Z,9.37
2023-01-01T18:24:21.361Z,10.67
2023-01-01T18:26:48.141Z,9.67
2023-01-01T18:29:15.705Z,9.90
2023-01-01T18:31:42.421Z,9.57
2023-01-01T18:34:10.729Z,9.53
2023-01-01T18:36:37.756Z,9.77
2023-01-01T18:39:22.989Z,10.50
2023-01-01T18:41:49.639Z,9.80
2023-01-01T18:44:20.732Z,9.87
2023-01-01T18:47:05.529Z,8.63
2023-01-01T18:49:33.801Z,8.90
2023-01-01T18:52:31.696Z,8.93
2023-01-01T18:55:10.863Z,8.90
2023-01-01T18:57:39.081Z,8.87
2023-01-01T19:00:18.647Z,9.63
2023-01-01T19:02:54.245Z,8.27
2023-01-01T19:05:27.208Z,9.07
2023-01-01T19:08:04.595Z,8.63
2023-01-01T19:10:46.963Z,9.13
2023-01-01T19:13:31.280Z,8.63
2023-01-01T19:16:24.163Z,7.57
2023-01-01T19:18:52.865Z,8.40
2023-01-01T19:21:21.366Z,8.77
2023-01-01T19:23:57.788Z,8.17
2023-01-01T19:26:41.739Z,7.80
2023-01-01T19:29:15.836Z,7.73
2023-01-01T19:31:43.472Z,8.53
2023-01-01T19:34:11.116Z,8.00
2023-01-01T19:36:38.112Z,8.20
2023-01-01T19:39:05.654Z,8.33
2023-01-01T19:41:32.833Z,7.53
2023-01-01T19:43:59.503Z,8.40
2023-01-01T19:46:26.503Z,7.77
2023-01-01T19:48:53.343Z,8.43
2023-01-01T19:51:22.561Z,7.93
2023-01-01T19:53:53.623Z,8.00
2023-01-01T19:56:21.101Z,8.87
2023-01-01T19:58:48.261Z,8.50
2023-01-01T20:01:15.147Z,9.07
2023-01-01T20:03:57.861Z,9.33
2023-01-01T20:06:25.809Z,9.03
2023-01-01T20:08:53.240Z,9.27
2023-01-01T20:11:20.678Z,8.67
2023-01-01T20:13:47.452Z,9.37
2023-01-01T20:16:14.452Z,9.43
2023-01-01T20:18:41.266Z,10.00
2023-01-01T20:21:27.234Z,9.53
2023-01-01T20:23:55.309Z,10.60
2023-01-01T20:26:23.678Z,9.70
2023-01-01T20:29:09.329Z,9.43
2023-01-01T20:31:36.354Z,9.93
2023-01-01T20:34:03.071Z,9.40
2023-01-01T20:36:48.317Z,9.87
2023-01-01T20:39:14.992Z,9.40
2023-01-01T20:41:41.769Z,10.37
2023-01-01T20:44:08.452Z,9.40
2023-01-01T20:46:36.145Z,8.80
2023-01-01T20:49:03.006Z,10.17
2023-01-01T20:51:29.813Z,9.43
2023-01-01T20:53:56.695Z,8.43
2023-01-01T20:56:23.464Z,8.40
2023-01-01T20:58:56.068Z,8.10
2023-01-01T21:01:26.249Z,8.13
2023-01-01T21:03:53.306Z,9.03
2023-01-01T21:06:24.453Z,8.37
2023-01-01T21:08:52.142Z,8.43
2023-01-01T21:11:18.887Z,8.03
2023-01-01T21:13:45.743Z,9.97
2023-01-01T21:16:17.012Z,11.57
2023-01-01T21:18:44.241Z,11.33
2023-01-01T21:21:20.655Z,12.40
2023-01-01T21:23:48.315Z,12.30
2023-01-01T21:26:35.930Z,14.50
2023-01-01T21:29:11.390Z,13.83
2023-01-01T21:31:38.286Z,13.50
2023-01-01T21:34:26.698Z,14.30
2023-01-01T21:37:15.272Z,13.50
2023-01-01T21:39:42.484Z,13.60
2023-01-01T21:42:23.974Z,14.30
2023-01-01T21:44:57.199Z,13.97
2023-01-01T21:47:24.960Z,14.80
2023-01-01T21:49:56.266Z,14.67
2023-01-01T21:52:25.486Z,14.27
2023-01-01T21:54:52.968Z,13.83
2023-01-01T21:57:24.567Z,13.47
2023-01-01T21:59:51.856Z,14.10
2023-01-01T22:02:34.927Z,12.90
2023-01-01T22:05:28.170Z,15.20
2023-01-01T22:07:58.923Z,14.37
2023-01-01T22:10:32.464Z,14.30
2023-01-01T22:13:00.020Z,13.60
2023-01-01T22:15:26.673Z,13.10
2023-01-01T22:18:20.443Z,12.40
2023-01-01T22:20:47.647Z,11.77
2023-01-01T22:23:44.539Z,12.17
2023-01-01T22:26:18.503Z,11.10
2023-01-01T22:28:46.939Z,11.67
2023-01-01T22:31:24.840Z,11.80
2023-01-01T22:33:52.823Z,10.80
2023-01-01T22:36:30.570Z,11.77
2023-01-01T22:39:01.077Z,11.23
2023-01-01T22:41:27.971Z,10.63
2023-01-01T22:44:02.133Z,10.20
2023-01-01T22:46:34.124Z,10.90
2023-01-01T22:49:10.951Z,10.37
2023-01-01T22:51:45.324Z,9.87
2023-01-01T22:54:12.295Z,9.97
2023-01-01T22:56:38.997Z,11.30
2023-01-01T22:59:05.667Z,10.30
2023-01-01T23:01:32.366Z,10.10
2023-01-01T23:03:59.191Z,10.30
2023-01-01T23:06:26.386Z,10.33
2023-01-01T23:08:53.721Z,9.47
2023-01-01T23:11:21.266Z,10.47
2023-01-01T23:14:09.173Z,10.03
2023-01-01T23:16:36.561Z,9.27
2023-01-01T23:19:03.649Z,8.73
2023-01-01T23:21:31.684Z,9.77
2023-01-01T23:24:00.546Z,9.20
2023-01-01T23:26:27.430Z,9.63
2023-01-01T23:28:55.280Z,9.07
2023-01-01T23:31:25.551Z,9.13
2023-01-01T23:33:53.884Z,8.00
2023-01-01T23:36:20.808Z,8.43
2023-01-01T23:38:47.592Z,8.57
2023-01-01T23:41:14.276Z,8.10
2023-01-01T23:43:43.596Z,8.70
2023-01-01T23:46:12.989Z,7.30
2023-01-01T23:48:41.010Z,8.30
2023-01-01T23:51:07.986Z,8.40
2023-01-01T23:53:34.813Z,8.60
2023-01-01T23:56:01.642Z,8.47
2023-01-01T23:58:28.452Z,8.07
